Time;durP1;ratioP1;P1;durP2;ratioP2;P2;SDS_P1;SDS_P2;PMS_P1;PMS_P2;Temp;Humidity;BMP_temperature;BMP_pressure;BME280_temperature;BME280_humidity;BME280_pressure;Samples;Min_cycle;Max_cycle;Signal;HPM_P1;HPM_P2
2021/06/25 00:00:20;;;;;;;;;;;;;;;20.68;42.09;102004.47;4977298;28;19929;-81
2021/06/25 00:02:45;;;;;;;;;;;;;;;20.34;43.54;102005.97;4977705;28;19925;-81
2021/06/25 00:05:11;;;;;;;;;;;;;;;20.69;42.85;102003.47;4982149;28;19981;-81
2021/06/25 00:07:37;;;;;;;;;;;;;;;20.67;42.66;102004.59;4986101;28;19918;-81
2021/06/25 00:10:05;;;;;;;;;;;;;;;20.30;43.47;102004.41;4987680;28;19985;-82
2021/06/25 00:12:30;;;;;;;;;;;;;;;20.30;43.60;102012.66;4981241;28;20415;-84
2021/06/25 00:14:55;;;;;;;;;;;;;;;20.43;43.40;102005.31;4981083;28;19925;-81
2021/06/25 00:17:21;;;;;;;;;;;;;;;20.40;43.55;102005.53;4979047;28;19929;-84
2021/06/25 00:19:46;;;;;;;;;;;;;;;20.71;42.65;102000.59;4980985;28;19918;-80
2021/06/25 00:22:11;;;;;;;;;;;;;;;20.17;43.87;101994.28;4979748;28;20368;-82
2021/06/25 00:24:40;;;;;;;;;;;;;;;20.50;43.00;101997.47;4979901;28;19919;-82
2021/06/25 00:27:05;;;;;;;;;;;;;;;20.48;42.90;101988.47;4981574;28;19926;-83
2021/06/25 00:29:31;;;;;;;;;;;;;;;20.64;42.64;101980.03;4979983;28;19930;-83
2021/06/25 00:31:56;;;;;;;;;;;;;;;20.04;44.03;101984.25;4982244;28;19918;-82
2021/06/25 00:34:21;;;;;;;;;;;;;;;20.12;43.93;101979.97;4979472;28;20018;-84
2021/06/25 00:36:46;;;;;;;;;;;;;;;20.26;43.62;101980.88;4978907;28;19918;-84
2021/06/25 00:39:12;;;;;;;;;;;;;;;20.27;43.61;101968.91;4978877;28;20005;-84
2021/06/25 00:41:37;;;;;;;;;;;;;;;20.36;43.22;101977.34;4981168;28;19918;-82
2021/06/25 00:44:02;;;;;;;;;;;;;;;20.54;42.90;101972.41;4979269;28;19918;-82
2021/06/25 00:46:28;;;;;;;;;;;;;;;20.44;42.96;101964.94;4981001;28;20295;-84
2021/06/25 00:48:54;;;;;;;;;;;;;;;21.00;41.61;101964.56;4981240;28;19980;-82
2021/06/25 00:51:19;;;;;;;;;;;;;;;20.46;43.03;101971.22;4981481;28;19989;-84
2021/06/25 00:53:44;;;;;;;;;;;;;;;19.78;44.39;101973.22;4980369;28;20017;-82
2021/06/25 00:56:10;;;;;;;;;;;;;;;19.60;45.00;101972.56;4981720;28;19919;-82
2021/06/25 00:58:35;;;;;;;;;;;;;;;19.48;45.77;101974.28;4979640;28;19918;-83
2021/06/25 01:01:02;;;;;;;;;;;;;;;19.99;44.39;101970.84;4979727;28;19918;-84
2021/06/25 01:03:27;;;;;;;;;;;;;;;20.24;43.82;101963.63;4979277;28;19981;-82
2021/06/25 01:05:52;;;;;;;;;;;;;;;20.51;43.04;101967.13;4980291;28;20077;-83
2021/06/25 01:08:17;;;;;;;;;;;;;;;20.38;43.63;101957.13;4978284;28;19925;-83
2021/06/25 01:10:43;;;;;;;;;;;;;;;19.24;47.17;101952.13;4978711;28;19926;-84
2021/06/25 01:13:09;;;;;;;;;;;;;;;19.74;45.78;101941.44;4978561;28;19925;-84
2021/06/25 01:15:34;;;;;;;;;;;;;;;19.73;45.82;101932.31;4977805;28;19953;-83
2021/06/25 01:18:01;;;;;;;;;;;;;;;19.48;47.23;101938.59;4977783;28;19973;-81
2021/06/25 01:20:27;;;;;;;;;;;;;;;19.71;45.88;101933.41;4982995;28;19922;-83
2021/06/25 01:22:53;;;;;;;;;;;;;;;20.22;44.86;101929.91;4981182;28;19925;-82
2021/06/25 01:25:19;;;;;;;;;;;;;;;20.07;45.54;101932.72;4980122;28;20287;-83
2021/06/25 01:27:50;;;;;;;;;;;;;;;20.07;45.10;101929.09;4979827;28;19966;-83
2021/06/25 01:30:16;;;;;;;;;;;;;;;19.50;46.48;101935.75;4979255;28;19918;-82
2021/06/25 01:32:42;;;;;;;;;;;;;;;20.13;45.22;101929.53;4979045;28;19986;-81
2021/06/25 01:35:08;;;;;;;;;;;;;;;20.05;45.54;101928.31;4979265;28;20376;-83
2021/06/25 01:37:33;;;;;;;;;;;;;;;20.03;45.73;101939.41;4978716;28;20483;-82
2021/06/25 01:39:58;;;;;;;;;;;;;;;19.86;46.75;101931.50;4980461;28;20394;-82
2021/06/25 01:42:24;;;;;;;;;;;;;;;19.44;48.14;101926.94;4978860;28;19918;-83
2021/06/25 01:44:50;;;;;;;;;;;;;;;19.54;48.50;101931.81;4981603;28;19972;-83
2021/06/25 01:47:16;;;;;;;;;;;;;;;19.77;47.58;101930.22;4980970;28;19918;-81
2021/06/25 01:49:41;;;;;;;;;;;;;;;20.31;45.96;101932.84;4979758;28;19925;-83
2021/06/25 01:52:07;;;;;;;;;;;;;;;19.91;47.12;101918.31;4982132;28;19919;-82
2021/06/25 01:54:32;;;;;;;;;;;;;;;19.62;48.47;101923.94;4980757;28;19918;-83
2021/06/25 01:56:57;;;;;;;;;;;;;;;18.99;50.31;101926.28;4981828;28;19918;-86
2021/06/25 01:59:23;;;;;;;;;;;;;;;19.19;50.33;101911.28;4985785;28;19925;-80
2021/06/25 02:01:48;;;;;;;;;;;;;;;19.74;48.08;101906.59;4984221;28;20005;-82
2021/06/25 02:04:16;;;;;;;;;;;;;;;19.51;49.24;101904.59;4981071;28;19976;-83
2021/06/25 02:06:41;;;;;;;;;;;;;;;20.25;46.55;101903.06;4979022;28;20013;-83
2021/06/25 02:09:07;;;;;;;;;;;;;;;19.83;48.00;101911.47;4978474;28;19961;-83
2021/06/25 02:11:32;;;;;;;;;;;;;;;19.89;47.89;101904.69;4979931;28;19918;-82
2021/06/25 02:13:57;;;;;;;;;;;;;;;20.35;46.97;101900.50;4978879;28;19918;-85
2021/06/25 02:16:23;;;;;;;;;;;;;;;19.92;47.97;101904.47;4980218;28;19918;-83
2021/06/25 02:18:48;;;;;;;;;;;;;;;20.14;47.58;101901.09;4978757;28;20068;-84
2021/06/25 02:21:13;;;;;;;;;;;;;;;20.43;46.69;101900.84;4978521;28;19961;-84
2021/06/25 02:23:38;;;;;;;;;;;;;;;20.47;46.69;101905.16;4979243;28;19965;-81
2021/06/25 02:26:04;;;;;;;;;;;;;;;20.77;45.76;101901.13;4980064;28;19941;-82
2021/06/25 02:28:29;;;;;;;;;;;;;;;20.66;46.06;101895.56;4980002;28;19925;-83
2021/06/25 02:30:55;;;;;;;;;;;;;;;21.33;44.37;101897.88;4979361;28;19924;-82
2021/06/25 02:33:20;;;;;;;;;;;;;;;20.95;45.13;101892.53;4981173;28;19942;-83
2021/06/25 02:35:46;;;;;;;;;;;;;;;20.76;46.28;101899.41;4979784;28;20297;-83
2021/06/25 02:38:11;;;;;;;;;;;;;;;21.35;44.52;101895.88;4978213;28;20005;-81
2021/06/25 02:40:36;;;;;;;;;;;;;;;21.15;44.87;101899.25;4980726;28;20430;-82
2021/06/25 02:43:02;;;;;;;;;;;;;;;20.09;48.06;101891.41;4979603;28;19918;-83
2021/06/25 02:45:27;;;;;;;;;;;;;;;20.09;47.95;101883.16;4980642;28;19918;-84
2021/06/25 02:47:52;;;;;;;;;;;;;;;21.13;45.46;101884.75;4978900;28;19925;-84
2021/06/25 02:50:18;;;;;;;;;;;;;;;21.16;44.91;101884.53;4979298;28;19942;-85
2021/06/25 02:52:43;;;;;;;;;;;;;;;21.11;45.38;101878.50;4980806;28;19994;-84
2021/06/25 02:55:09;;;;;;;;;;;;;;;21.23;44.64;101864.66;4980370;28;19919;-83
2021/06/25 02:57:34;;;;;;;;;;;;;;;20.85;46.23;101868.47;4979508;28;19925;-84
2021/06/25 03:00:00;;;;;;;;;;;;;;;21.23;45.29;101867.41;4979561;28;19922;-84
2021/06/25 03:02:25;;;;;;;;;;;;;;;20.64;46.66;101864.53;4979555;28;20021;-83
2021/06/25 03:04:50;;;;;;;;;;;;;;;21.34;45.21;101869.34;4980433;28;19923;-83
2021/06/25 03:07:16;;;;;;;;;;;;;;;21.00;45.78;101865.53;4979134;28;20390;-84
2021/06/25 03:09:41;;;;;;;;;;;;;;;20.69;46.75;101871.47;4978826;28;20024;-83
2021/06/25 03:12:06;;;;;;;;;;;;;;;21.05;45.64;101875.19;4979234;28;19922;-85
2021/06/25 03:14:32;;;;;;;;;;;;;;;21.39;44.34;101863.47;4978543;28;20395;-84
2021/06/25 03:16:57;;;;;;;;;;;;;;;21.20;45.01;101859.41;4980290;28;19918;-83
2021/06/25 03:19:22;;;;;;;;;;;;;;;21.08;45.53;101854.84;4983258;28;20012;-82
2021/06/25 03:21:48;;;;;;;;;;;;;;;21.20;44.74;101855.78;4980080;28;19918;-83
2021/06/25 03:24:13;;;;;;;;;;;;;;;21.12;45.51;101855.47;4978869;28;20664;-83
2021/06/25 03:26:38;;;;;;;;;;;;;;;20.85;46.21;101854.72;4977907;28;19918;-83
2021/06/25 03:29:04;;;;;;;;;;;;;;;21.27;45.39;101850.66;4979613;28;20324;-83
2021/06/25 03:31:29;;;;;;;;;;;;;;;21.52;44.43;101853.31;4978577;28;19918;-84
2021/06/25 03:33:54;;;;;;;;;;;;;;;22.14;42.93;101842.91;4978706;28;19918;-83
2021/06/25 03:36:20;;;;;;;;;;;;;;;21.67;44.25;101845.72;4978676;28;19922;-82
2021/06/25 03:38:45;;;;;;;;;;;;;;;21.69;44.14;101849.22;4980786;28;19926;-83
2021/06/25 03:41:10;;;;;;;;;;;;;;;21.34;44.59;101841.81;4980829;28;19930;-82
2021/06/25 03:43:36;;;;;;;;;;;;;;;21.24;45.57;101844.41;4979046;28;20016;-82
2021/06/25 03:46:01;;;;;;;;;;;;;;;21.85;43.82;101837.88;4979838;28;19982;-82
2021/06/25 03:48:26;;;;;;;;;;;;;;;21.69;43.80;101842.84;4979498;28;19918;-83
2021/06/25 03:50:51;;;;;;;;;;;;;;;21.78;43.78;101836.59;4981902;28;19964;-84
2021/06/25 03:53:17;;;;;;;;;;;;;;;21.84;43.67;101835.25;4983705;28;19918;-81
2021/06/25 03:58:28;;;;;;;;;;;;;;;22.05;43.02;101827.13;4980505;28;19973;-82
2021/06/25 04:00:54;;;;;;;;;;;;;;;21.32;45.16;101826.44;4978646;28;19922;-83
2021/06/25 04:03:19;;;;;;;;;;;;;;;21.41;44.64;101812.81;4977308;28;20276;-82
2021/06/25 04:05:44;;;;;;;;;;;;;;;21.12;45.10;101817.84;4976577;28;20395;-83
2021/06/25 04:08:10;;;;;;;;;;;;;;;21.16;44.66;101819.34;4976668;28;20139;-81
2021/06/25 04:10:35;;;;;;;;;;;;;;;21.95;42.47;101804.94;4975348;28;19972;-82
2021/06/25 04:13:00;;;;;;;;;;;;;;;21.62;43.30;101808.50;4976411;28;19930;-82
2021/06/25 04:15:26;;;;;;;;;;;;;;;21.53;43.63;101808.25;4976114;28;19925;-81
2021/06/25 04:17:51;;;;;;;;;;;;;;;21.61;43.18;101802.16;4975590;28;19918;-83
2021/06/25 04:20:17;;;;;;;;;;;;;;;22.18;42.04;101799.44;4975839;28;20393;-84
2021/06/25 04:22:43;;;;;;;;;;;;;;;21.49;43.44;101794.81;4977502;28;20268;-82
2021/06/25 04:25:08;;;;;;;;;;;;;;;22.02;42.07;101788.81;4976618;28;19925;-82
2021/06/25 04:27:34;;;;;;;;;;;;;;;21.67;42.56;101800.78;4976226;28;19918;-83
2021/06/25 04:29:59;;;;;;;;;;;;;;;21.93;41.92;101788.53;4975774;28;19918;-81
2021/06/25 04:32:24;;;;;;;;;;;;;;;21.51;43.10;101793.72;4974796;28;19919;-83
2021/06/25 04:34:50;;;;;;;;;;;;;;;22.17;41.28;101798.56;4976552;28;20300;-83
2021/06/25 04:37:15;;;;;;;;;;;;;;;22.12;41.55;101800.84;4976882;28;20010;-82
2021/06/25 04:39:40;;;;;;;;;;;;;;;22.80;40.15;101790.59;4976388;28;19922;-82
2021/06/25 04:42:06;;;;;;;;;;;;;;;22.96;39.54;101786.53;4975567;28;19934;-82
2021/06/25 04:44:31;;;;;;;;;;;;;;;22.75;40.05;101789.22;4976482;28;19922;-82
2021/06/25 04:46:56;;;;;;;;;;;;;;;22.40;41.34;101790.31;4974726;28;19918;-84
2021/06/25 04:49:21;;;;;;;;;;;;;;;22.52;40.95;101794.78;4976805;28;19918;-83
2021/06/25 04:51:46;;;;;;;;;;;;;;;22.82;40.60;101788.56;4976502;28;19925;-84
2021/06/25 04:54:12;;;;;;;;;;;;;;;22.76;40.84;101785.47;4975543;28;20319;-81
2021/06/25 04:56:37;;;;;;;;;;;;;;;23.13;39.96;101777.72;4975190;28;19932;-79
2021/06/25 04:59:02;;;;;;;;;;;;;;;22.69;40.81;101781.47;4972874;28;20376;-80
2021/06/25 05:01:27;;;;;;;;;;;;;;;22.55;41.69;101786.25;4976231;28;19925;-78
2021/06/25 05:03:53;;;;;;;;;;;;;;;22.50;41.78;101788.53;4979058;28;19918;-79
2021/06/25 05:06:18;;;;;;;;;;;;;;;22.03;43.22;101776.78;4978016;28;19922;-81
2021/06/25 05:08:43;;;;;;;;;;;;;;;22.40;42.63;101785.66;4979837;28;19918;-80
2021/06/25 05:11:08;;;;;;;;;;;;;;;22.65;42.42;101781.72;4985316;28;19956;-80
2021/06/25 05:13:34;;;;;;;;;;;;;;;22.90;41.88;101770.50;4981153;28;19922;-81
2021/06/25 05:15:59;;;;;;;;;;;;;;;22.48;43.29;101763.84;4977584;28;19918;-80
2021/06/25 05:18:25;;;;;;;;;;;;;;;22.54;43.14;101770.75;4976299;28;19941;-81
2021/06/25 05:20:51;;;;;;;;;;;;;;;22.88;42.25;101759.59;4975123;28;20279;-81
2021/06/25 05:23:16;;;;;;;;;;;;;;;23.05;41.91;101766.41;4976327;28;20008;-79
2021/06/25 05:25:43;;;;;;;;;;;;;;;23.78;40.79;101768.41;4974718;28;20355;-82
2021/06/25 05:28:08;;;;;;;;;;;;;;;22.70;43.18;101770.31;4975408;28;19972;-81
2021/06/25 05:30:34;;;;;;;;;;;;;;;23.21;42.74;101768.78;4977116;28;19925;-81
2021/06/25 05:33:00;;;;;;;;;;;;;;;23.26;42.58;101760.94;4976298;28;20063;-81
2021/06/25 05:35:31;;;;;;;;;;;;;;;23.78;41.93;101768.41;4976639;28;19930;-82
2021/06/25 05:37:57;;;;;;;;;;;;;;;23.69;41.90;101765.47;4977171;28;19957;-83
2021/06/25 05:40:22;;;;;;;;;;;;;;;23.28;43.27;101761.72;4977703;28;20427;-79
2021/06/25 05:42:48;;;;;;;;;;;;;;;23.05;44.08;101760.03;4979550;28;19927;-80
2021/06/25 05:45:13;;;;;;;;;;;;;;;23.40;43.39;101765.28;4981721;28;19969;-82
2021/06/25 05:47:38;;;;;;;;;;;;;;;22.99;44.78;101765.09;4976423;28;20025;-82
2021/06/25 05:50:03;;;;;;;;;;;;;;;23.42;43.68;101767.91;4975746;28;20302;-84
2021/06/25 05:52:29;;;;;;;;;;;;;;;23.20;44.02;101764.25;4974707;28;20319;-84
2021/06/25 05:54:54;;;;;;;;;;;;;;;23.64;43.48;101759.50;4975209;28;20411;-81
2021/06/25 05:57:19;;;;;;;;;;;;;;;23.94;43.13;101749.47;4977093;28;20384;-85
2021/06/25 05:59:44;;;;;;;;;;;;;;;24.12;42.49;101754.34;4977379;28;20284;-81
2021/06/25 06:02:10;;;;;;;;;;;;;;;23.86;43.19;101761.22;4974633;28;19949;-81
2021/06/25 06:04:35;;;;;;;;;;;;;;;22.85;46.61;101753.47;4974774;28;19997;-82
2021/06/25 06:07:01;;;;;;;;;;;;;;;23.62;44.19;101757.88;4974380;28;20305;-81
2021/06/25 06:09:26;;;;;;;;;;;;;;;22.94;46.27;101755.44;4975990;28;20384;-82
2021/06/25 06:11:52;;;;;;;;;;;;;;;23.23;45.60;101763.13;4974179;28;19929;-81
2021/06/25 06:14:17;;;;;;;;;;;;;;;23.59;45.15;101759.00;4974424;28;19918;-83
2021/06/25 06:16:42;;;;;;;;;;;;;;;22.60;47.98;101763.81;4975824;28;19925;-86
2021/06/25 06:19:08;;;;;;;;;;;;;;;22.95;47.83;101771.00;4976974;28;20409;-82
2021/06/25 06:35:12;;;;;;;;;;;;;;;23.35;48.07;101778.59;4975971;28;19922;-84
2021/06/25 06:37:37;;;;;;;;;;;;;;;24.11;45.94;101777.47;4974755;28;20369;-83
2021/06/25 06:40:03;;;;;;;;;;;;;;;23.52;47.67;101779.88;4976466;28;20360;-83
2021/06/25 06:42:28;;;;;;;;;;;;;;;23.69;47.40;101779.28;4976513;28;20429;-84
2021/06/25 06:44:54;;;;;;;;;;;;;;;23.92;46.47;101778.28;4976694;28;19918;-83
2021/06/25 06:47:19;;;;;;;;;;;;;;;24.51;44.49;101768.31;4975403;28;20008;-83
2021/06/25 06:49:44;;;;;;;;;;;;;;;23.83;46.48;101768.88;4975436;28;19929;-86
2021/06/25 06:52:09;;;;;;;;;;;;;;;24.50;44.90;101769.31;4975477;28;19941;-85
2021/06/25 06:54:35;;;;;;;;;;;;;;;24.27;45.19;101775.06;4976583;28;20364;-82
2021/06/25 06:57:00;;;;;;;;;;;;;;;24.30;45.40;101773.91;4977555;28;19922;-85
2021/06/25 06:59:25;;;;;;;;;;;;;;;25.65;42.39;101765.88;4976333;28;19922;-85
2021/06/25 07:01:50;;;;;;;;;;;;;;;25.09;43.20;101767.50;4980214;28;20016;-83
2021/06/25 07:04:16;;;;;;;;;;;;;;;25.52;42.12;101766.19;4980107;28;20292;-84
2021/06/25 07:06:41;;;;;;;;;;;;;;;26.11;41.00;101766.06;4976384;28;20390;-86
2021/06/25 07:09:06;;;;;;;;;;;;;;;25.11;42.78;101759.97;4975028;28;20333;-84
2021/06/25 07:11:31;;;;;;;;;;;;;;;26.22;40.32;101760.28;4975952;28;19949;-84
2021/06/25 07:13:56;;;;;;;;;;;;;;;24.77;43.46;101761.25;4974848;28;19922;-84
2021/06/25 07:16:22;;;;;;;;;;;;;;;25.01;43.28;101753.53;4976366;28;20390;-85
2021/06/25 07:18:47;;;;;;;;;;;;;;;25.57;42.31;101755.53;4974796;28;20378;-83
2021/06/25 07:21:12;;;;;;;;;;;;;;;26.39;39.75;101749.41;4975719;28;19918;-85
2021/06/25 07:23:38;;;;;;;;;;;;;;;26.54;39.21;101747.84;4973844;28;20021;-83
2021/06/25 07:26:03;;;;;;;;;;;;;;;25.43;41.81;101754.09;4983449;28;19953;-83
2021/06/25 07:28:29;;;;;;;;;;;;;;;25.37;42.03;101763.00;4984950;28;19922;-85
2021/06/25 07:30:54;;;;;;;;;;;;;;;26.52;39.60;101755.47;4984070;28;19918;-84
2021/06/25 07:33:19;;;;;;;;;;;;;;;25.87;40.90;101761.88;4984782;28;20279;-84
2021/06/25 07:35:45;;;;;;;;;;;;;;;26.26;39.59;101770.06;5007995;28;20367;-83
2021/06/25 07:38:10;;;;;;;;;;;;;;;26.36;39.95;101775.56;4986378;28;19925;-84
2021/06/25 07:40:35;;;;;;;;;;;;;;;26.08;39.51;101767.22;4981578;28;19918;-83
2021/06/25 07:43:00;;;;;;;;;;;;;;;26.25;39.48;101775.75;4982658;28;20363;-81
2021/06/25 07:45:25;;;;;;;;;;;;;;;26.08;39.74;101777.44;4983980;28;20330;-80
2021/06/25 07:47:51;;;;;;;;;;;;;;;26.28;40.08;101768.00;4989788;28;20438;-82
2021/06/25 07:50:17;;;;;;;;;;;;;;;25.72;40.82;101766.16;4984953;28;19941;-82
2021/06/25 07:52:42;;;;;;;;;;;;;;;26.62;38.67;101752.63;4980612;28;19918;-81
2021/06/25 07:55:08;;;;;;;;;;;;;;;24.98;42.21;101763.00;4979524;28;19972;-83
2021/06/25 07:57:34;;;;;;;;;;;;;;;25.75;40.28;101761.19;4979961;28;20340;-86
2021/06/25 07:59:59;;;;;;;;;;;;;;;26.50;39.17;101758.38;4992513;28;19957;-85
2021/06/25 08:02:25;;;;;;;;;;;;;;;25.58;40.38;101760.06;4991231;28;19929;-84
2021/06/25 08:04:50;;;;;;;;;;;;;;;27.21;37.05;101762.25;4973944;28;20021;-84
2021/06/25 08:07:16;;;;;;;;;;;;;;;25.62;40.81;101760.63;4976165;28;19926;-84
2021/06/25 08:09:41;;;;;;;;;;;;;;;26.05;39.99;101761.13;4993221;28;20014;-83
2021/06/25 08:12:08;;;;;;;;;;;;;;;25.44;41.90;101753.09;5007993;28;19925;-82
2021/06/25 08:14:33;;;;;;;;;;;;;;;26.34;39.68;101758.19;4983285;28;19985;-80
2021/06/25 08:16:58;;;;;;;;;;;;;;;27.00;38.10;101758.94;4972324;28;19962;-79
2021/06/25 08:19:23;;;;;;;;;;;;;;;26.26;39.56;101763.66;4988386;28;20289;-81
2021/06/25 08:21:48;;;;;;;;;;;;;;;26.48;39.78;101767.88;4988190;28;20395;-82
2021/06/25 08:24:14;;;;;;;;;;;;;;;26.47;39.50;101760.63;4988389;28;20418;-82
2021/06/25 08:26:39;;;;;;;;;;;;;;;26.38;39.61;101756.88;4973703;28;20372;-82
2021/06/25 08:29:04;;;;;;;;;;;;;;;26.94;38.75;101756.81;4987765;28;20361;-82
2021/06/25 08:31:29;;;;;;;;;;;;;;;25.52;41.43;101748.72;4973886;28;19937;-81
2021/06/25 08:33:55;;;;;;;;;;;;;;;26.80;38.92;101745.22;4988816;28;19965;-82
2021/06/25 08:36:20;;;;;;;;;;;;;;;25.68;41.08;101757.28;4975644;28;19930;-81
2021/06/25 08:38:45;;;;;;;;;;;;;;;25.69;41.41;101749.84;4992204;28;19995;-81
2021/06/25 08:41:11;;;;;;;;;;;;;;;25.88;40.63;101748.88;4977650;28;19929;-81
2021/06/25 08:43:36;;;;;;;;;;;;;;;26.81;39.09;101741.44;4977435;28;19941;-81
2021/06/25 08:46:01;;;;;;;;;;;;;;;27.67;37.71;101744.56;4991952;28;19977;-81
2021/06/25 08:48:27;;;;;;;;;;;;;;;27.23;38.01;101746.28;4992483;28;19990;-83
2021/06/25 08:50:54;;;;;;;;;;;;;;;26.61;39.26;101743.41;4997126;28;19951;-82
2021/06/25 08:53:19;;;;;;;;;;;;;;;27.70;37.29;101736.75;4996033;28;19977;-83
2021/06/25 08:55:44;;;;;;;;;;;;;;;26.59;39.60;101747.41;4976739;28;19972;-82
2021/06/25 08:58:13;;;;;;;;;;;;;;;27.74;37.79;101748.44;4991576;28;19925;-82
2021/06/25 09:00:39;;;;;;;;;;;;;;;27.87;37.25;101737.75;4991713;28;19918;-82
2021/06/25 09:03:04;;;;;;;;;;;;;;;27.75;37.21;101733.50;4991653;28;19924;-82
2021/06/25 09:05:29;;;;;;;;;;;;;;;27.20;38.22;101740.19;4976785;28;19925;-82
2021/06/25 09:07:56;;;;;;;;;;;;;;;27.46;38.36;101739.38;4991744;28;19972;-82
2021/06/25 09:10:29;;;;;;;;;;;;;;;27.77;37.26;101737.84;4991453;28;19922;-83
2021/06/25 09:13:01;;;;;;;;;;;;;;;26.77;39.04;101731.66;4976294;28;19968;-80
2021/06/25 09:15:28;;;;;;;;;;;;;;;26.33;40.08;101729.59;4976935;28;19942;-80
2021/06/25 09:17:58;;;;;;;;;;;;;;;27.58;37.86;101727.84;4978388;28;19941;-83
2021/06/25 09:20:42;;;;;;;;;;;;;;;26.51;40.26;101731.50;4995690;28;19918;-84
2021/06/25 09:23:11;;;;;;;;;;;;;;;25.95;41.93;101727.84;4997400;28;19926;-84
2021/06/25 09:25:56;;;;;;;;;;;;;;;26.60;40.08;101724.13;4995322;28;20295;-82
2021/06/25 09:28:34;;;;;;;;;;;;;;;26.76;40.11;101721.56;4991618;28;19922;-82
2021/06/25 09:31:00;;;;;;;;;;;;;;;26.35;40.27;101721.09;4977113;28;19925;-82
2021/06/25 09:33:25;;;;;;;;;;;;;;;27.26;39.25;101716.47;4991908;28;19922;-82
2021/06/25 09:35:52;;;;;;;;;;;;;;;27.21;39.13;101728.06;4992726;28;20438;-84
2021/06/25 09:38:33;;;;;;;;;;;;;;;26.73;40.09;101733.00;4977552;28;19929;-84
2021/06/25 09:40:59;;;;;;;;;;;;;;;27.05;39.31;101737.09;4976225;28;19918;-82
2021/06/25 09:43:29;;;;;;;;;;;;;;;25.94;41.94;101734.44;4993289;28;19925;-85
2021/06/25 09:45:54;;;;;;;;;;;;;;;26.12;41.80;101745.63;4992718;28;20120;-81
2021/06/25 09:48:20;;;;;;;;;;;;;;;25.36;43.84;101750.19;4977543;28;19950;-85
2021/06/25 09:50:46;;;;;;;;;;;;;;;25.54;43.50;101750.28;4979138;28;19919;-83
2021/06/25 09:53:12;;;;;;;;;;;;;;;25.15;44.57;101749.44;4994998;28;19949;-89
2021/06/25 10:03:33;;;;;;;;;;;;;;;25.62;43.76;101746.75;4980528;28;20012;-83
2021/06/25 10:06:06;;;;;;;;;;;;;;;26.31;41.82;101744.63;4977566;28;19922;-88
2021/06/25 10:08:31;;;;;;;;;;;;;;;27.29;40.02;101743.91;4976524;28;19918;-83
2021/06/25 10:10:56;;;;;;;;;;;;;;;26.90;40.58;101741.50;4992314;28;19925;-87
2021/06/25 10:13:21;;;;;;;;;;;;;;;26.85;40.34;101744.75;4993313;28;19953;-88
2021/06/25 10:15:47;;;;;;;;;;;;;;;26.87;40.52;101738.00;4977845;28;19926;-89
2021/06/25 10:18:12;;;;;;;;;;;;;;;27.23;40.32;101740.72;4992764;28;19918;-86
2021/06/25 10:20:38;;;;;;;;;;;;;;;25.83;43.39;101754.88;4976853;28;19973;-87
2021/06/25 10:23:05;;;;;;;;;;;;;;;26.09;42.50;101751.44;4993519;28;19979;-84
2021/06/25 10:25:30;;;;;;;;;;;;;;;25.39;44.53;101754.56;4992178;28;19918;-83
2021/06/25 10:27:55;;;;;;;;;;;;;;;25.61;44.24;101759.75;4977159;28;19941;-87
2021/06/25 10:30:21;;;;;;;;;;;;;;;25.91;43.38;101760.56;4992858;28;20030;-85
2021/06/25 10:32:47;;;;;;;;;;;;;;;25.74;43.83;101765.00;4977151;28;19924;-88
2021/06/25 10:35:13;;;;;;;;;;;;;;;25.02;45.46;101763.59;4993336;28;20005;-87
2021/06/25 10:37:39;;;;;;;;;;;;;;;24.66;46.87;101764.13;4979123;28;19950;-89
2021/06/25 10:40:18;;;;;;;;;;;;;;;25.34;45.19;101766.09;4983155;28;20008;-88
2021/06/25 10:42:43;;;;;;;;;;;;;;;24.94;45.81;101764.31;4994141;28;20436;-85
2021/06/25 10:45:09;;;;;;;;;;;;;;;24.24;48.40;101767.91;4991726;28;19918;-84
2021/06/25 10:47:34;;;;;;;;;;;;;;;25.17;45.52;101761.25;4977327;28;19918;-84
2021/06/25 10:49:59;;;;;;;;;;;;;;;25.25;45.03;101764.16;4992485;28;19918;-84
2021/06/25 10:52:37;;;;;;;;;;;;;;;26.05;42.87;101759.22;4992928;28;19926;-85
2021/06/25 10:55:18;;;;;;;;;;;;;;;24.69;46.56;101763.84;4976620;28;19929;-88
2021/06/25 10:57:49;;;;;;;;;;;;;;;25.98;43.64;101758.03;4992237;28;20374;-85
2021/06/25 11:00:23;;;;;;;;;;;;;;;25.13;44.77;101763.44;4993285;28;20009;-85
2021/06/25 11:02:48;;;;;;;;;;;;;;;25.36;44.60;101765.94;4992957;28;19914;-84
2021/06/25 11:05:25;;;;;;;;;;;;;;;25.08;45.76;101766.66;4991810;28;19945;-85
2021/06/25 11:07:52;;;;;;;;;;;;;;;24.68;46.47;101767.63;4976842;28;19918;-84
2021/06/25 11:10:24;;;;;;;;;;;;;;;23.98;48.68;101772.19;4992305;28;19925;-80
2021/06/25 11:12:52;;;;;;;;;;;;;;;24.86;46.56;101775.25;4995531;28;20222;-83
2021/06/25 11:15:28;;;;;;;;;;;;;;;24.54;47.41;101768.88;4992213;28;19918;-83
2021/06/25 11:17:54;;;;;;;;;;;;;;;24.98;45.87;101774.06;4991843;28;20239;-84
2021/06/25 11:20:24;;;;;;;;;;;;;;;24.43;47.35;101771.78;4990672;28;19941;-83
2021/06/25 11:22:59;;;;;;;;;;;;;;;24.11;48.83;101778.38;4977333;28;19918;-83
2021/06/25 11:25:35;;;;;;;;;;;;;;;24.42;47.95;101768.13;4992215;28;19961;-83
2021/06/25 11:28:13;;;;;;;;;;;;;;;25.51;44.89;101774.66;4992899;28;19938;-84
2021/06/25 11:30:51;;;;;;;;;;;;;;;26.10;43.41;101758.75;4978279;28;19918;-87
2021/06/25 11:33:35;;;;;;;;;;;;;;;25.89;43.68;101762.63;4992996;28;19918;-83
2021/06/25 11:36:22;;;;;;;;;;;;;;;26.06;42.23;101758.19;4993047;28;20395;-86
2021/06/25 11:38:57;;;;;;;;;;;;;;;25.36;43.86;101761.25;4992799;28;20453;-85
2021/06/25 11:41:28;;;;;;;;;;;;;;;26.32;41.57;101750.03;4992939;28;19945;-85
2021/06/25 11:43:55;;;;;;;;;;;;;;;26.63;41.17;101752.47;4991672;28;19918;-85
2021/06/25 11:46:21;;;;;;;;;;;;;;;26.48;41.92;101762.34;4974862;28;19957;-84
2021/06/25 11:48:47;;;;;;;;;;;;;;;26.82;40.95;101748.69;4974836;28;19918;-83
2021/06/25 11:51:17;;;;;;;;;;;;;;;26.57;41.48;101755.00;4974660;28;19930;-88
2021/06/25 11:53:43;;;;;;;;;;;;;;;25.46;44.27;101755.72;4975542;28;19918;-82
2021/06/25 11:56:22;;;;;;;;;;;;;;;25.68;43.83;101760.06;4975287;28;19924;-85
2021/06/25 11:58:59;;;;;;;;;;;;;;;25.49;44.04;101752.66;4973373;28;19922;-84
2021/06/25 12:01:25;;;;;;;;;;;;;;;24.53;46.13;101757.97;4988983;28;20371;-83
2021/06/25 12:03:50;;;;;;;;;;;;;;;24.39;47.49;101750.94;4973336;28;19918;-86
2021/06/25 12:06:15;;;;;;;;;;;;;;;25.62;43.78;101753.19;4975077;28;19965;-85
2021/06/25 12:08:51;;;;;;;;;;;;;;;26.00;43.24;101756.03;4990385;28;19929;-86
2021/06/25 12:11:17;;;;;;;;;;;;;;;25.94;42.79;101753.84;4978145;28;19989;-86
2021/06/25 12:13:42;;;;;;;;;;;;;;;26.21;42.48;101761.34;4993187;28;19919;-86
2021/06/25 12:16:09;;;;;;;;;;;;;;;26.93;40.96;101744.81;4977818;28;19925;-84
2021/06/25 12:18:34;;;;;;;;;;;;;;;26.99;40.50;101748.88;4992835;28;19984;-84
2021/06/25 12:21:04;;;;;;;;;;;;;;;26.37;41.72;101755.09;4994557;28;19926;-87
2021/06/25 12:23:29;;;;;;;;;;;;;;;26.61;41.45;101742.56;4981463;28;20012;-86
2021/06/25 12:25:55;;;;;;;;;;;;;;;26.76;41.05;101749.34;4997532;28;19918;-85
2021/06/25 12:28:21;;;;;;;;;;;;;;;26.16;42.29;101756.25;4998403;28;19925;-84
2021/06/25 12:30:47;;;;;;;;;;;;;;;25.61;43.72;101757.00;4980865;28;19918;-84
2021/06/25 12:33:13;;;;;;;;;;;;;;;26.36;42.50;101747.84;4994848;28;19964;-85
2021/06/25 12:35:40;;;;;;;;;;;;;;;26.81;41.34;101746.97;4980379;28;19918;-86
2021/06/25 12:38:12;;;;;;;;;;;;;;;25.60;44.28;101751.59;4991010;28;19926;-86
2021/06/25 12:40:48;;;;;;;;;;;;;;;25.66;43.69;101751.00;4994474;28;19964;-86
2021/06/25 12:43:18;;;;;;;;;;;;;;;25.55;44.93;101759.50;4999264;28;20017;-84
2021/06/25 12:45:45;;;;;;;;;;;;;;;25.39;45.03;101765.63;4994615;28;19961;-86
2021/06/25 12:48:14;;;;;;;;;;;;;;;25.52;44.92;101751.50;4997730;28;20292;-85
2021/06/25 12:50:43;;;;;;;;;;;;;;;26.29;42.87;101755.88;4998036;28;20012;-84
2021/06/25 12:53:13;;;;;;;;;;;;;;;27.13;41.00;101751.09;5000011;28;20279;-84
2021/06/25 12:55:39;;;;;;;;;;;;;;;26.41;42.43;101761.25;4998125;28;19917;-87